createdAt,value
2019-02-27T00:00:11.411Z,1026.05
2019-02-27T00:01:09.874Z,1026.04
2019-02-27T00:02:09.787Z,1026.06
2019-02-27T00:03:09.699Z,1026.10
2019-02-27T00:04:09.636Z,1026.06
2019-02-27T00:05:09.549Z,1026.06
2019-02-27T00:06:09.452Z,1026.09
2019-02-27T00:07:09.367Z,1026.10
2019-02-27T00:08:09.276Z,1026.10
2019-02-27T00:09:09.201Z,1026.11
2019-02-27T00:10:09.115Z,1026.06
2019-02-27T00:11:09.918Z,1026.06
2019-02-27T00:12:08.939Z,1026.07
2019-02-27T00:13:08.849Z,1026.06
2019-02-27T00:14:08.766Z,1026.05
2019-02-27T00:15:08.688Z,1026.07
2019-02-27T00:16:10.849Z,1026.07
2019-02-27T00:17:08.515Z,1026.08
2019-02-27T00:18:08.429Z,1026.07
2019-02-27T00:19:08.341Z,1026.09
2019-02-27T00:20:08.254Z,1026.05
2019-02-27T00:21:10.511Z,1026.05
2019-02-27T00:22:08.089Z,1026.02
2019-02-27T00:23:08.003Z,1026.05
2019-02-27T00:24:07.922Z,1026.05
2019-02-27T00:25:07.840Z,1026.02
2019-02-27T00:26:09.052Z,1026.04
2019-02-27T00:27:07.668Z,1026.04
2019-02-27T00:28:07.576Z,1025.97
2019-02-27T00:29:07.491Z,1025.94
2019-02-27T00:30:07.403Z,1025.91
2019-02-27T00:31:11.204Z,1025.88
2019-02-27T00:32:07.245Z,1025.89
2019-02-27T00:33:07.152Z,1025.81
2019-02-27T00:34:07.065Z,1025.86
2019-02-27T00:35:07.405Z,1025.82
2019-02-27T00:36:06.891Z,1025.83
2019-02-27T00:37:06.807Z,1025.80
2019-02-27T00:38:06.729Z,1025.84
2019-02-27T00:39:06.645Z,1025.87
2019-02-27T00:40:06.569Z,1025.83
2019-02-27T00:41:06.468Z,1025.83
2019-02-27T00:42:06.380Z,1025.82
2019-02-27T00:43:06.305Z,1025.77
2019-02-27T00:44:06.219Z,1025.75
2019-02-27T00:45:07.075Z,1025.77
2019-02-27T00:46:06.041Z,1025.74
2019-02-27T00:47:05.953Z,1025.72
2019-02-27T00:48:05.869Z,1025.75
2019-02-27T00:49:05.794Z,1025.74
2019-02-27T00:50:06.610Z,1025.77
2019-02-27T00:51:05.620Z,1025.75
2019-02-27T00:52:05.531Z,1025.79
2019-02-27T00:53:05.443Z,1025.81
2019-02-27T00:54:05.355Z,1025.79
2019-02-27T00:55:05.381Z,1025.83
2019-02-27T00:56:05.193Z,1025.79
2019-02-27T00:57:05.107Z,1025.81
2019-02-27T00:58:05.017Z,1025.81
2019-02-27T00:59:04.936Z,1025.76
2019-02-27T01:00:06.503Z,1025.79
2019-02-27T01:01:04.759Z,1025.75
2019-02-27T01:02:04.682Z,1025.77
2019-02-27T01:03:04.596Z,1025.77
2019-02-27T01:04:04.507Z,1025.78
2019-02-27T01:05:06.261Z,1025.75
2019-02-27T01:06:04.330Z,1025.73
2019-02-27T01:07:04.243Z,1025.75
2019-02-27T01:08:04.168Z,1025.71
2019-02-27T01:09:06.330Z,1025.76
2019-02-27T01:10:04.001Z,1025.75
2019-02-27T01:11:03.908Z,1025.71
2019-02-27T01:12:03.821Z,1025.72
2019-02-27T01:13:03.734Z,1025.71
2019-02-27T01:14:04.154Z,1025.71
2019-02-27T01:15:03.572Z,1025.74
2019-02-27T01:16:03.483Z,1025.66
2019-02-27T01:17:03.394Z,1025.66
2019-02-27T01:18:03.307Z,1025.66
2019-02-27T01:19:04.801Z,1025.70
2019-02-27T01:20:03.147Z,1025.70
2019-02-27T01:21:03.072Z,1025.70
2019-02-27T01:22:03.272Z,1025.68
2019-02-27T01:23:02.884Z,1025.67
2019-02-27T01:24:02.797Z,1025.68
2019-02-27T01:25:02.708Z,1025.66
2019-02-27T01:26:02.632Z,1025.69
2019-02-27T01:27:04.509Z,1025.68
2019-02-27T01:28:02.470Z,1025.69
2019-02-27T01:29:02.409Z,1025.65
2019-02-27T01:30:02.285Z,1025.64
2019-02-27T01:31:02.196Z,1025.64
2019-02-27T01:32:02.108Z,1025.61
2019-02-27T01:33:04.117Z,1025.61
2019-02-27T01:34:01.949Z,1025.59
2019-02-27T01:35:01.874Z,1025.58
2019-02-27T01:36:01.774Z,1025.54
2019-02-27T01:37:01.684Z,1025.51
2019-02-27T01:38:05.105Z,1025.49
2019-02-27T01:39:01.510Z,1025.52
2019-02-27T01:40:01.434Z,1025.49
2019-02-27T01:41:01.354Z,1025.47
2019-02-27T01:42:01.262Z,1025.51
2019-02-27T01:43:05.254Z,1025.53
2019-02-27T01:44:01.088Z,1025.52
2019-02-27T01:45:01.000Z,1025.55
2019-02-27T01:46:00.925Z,1025.52
2019-02-27T01:47:02.404Z,1025.54
2019-02-27T01:48:00.750Z,1025.54
2019-02-27T01:49:00.660Z,1025.51
2019-02-27T01:50:00.575Z,1025.50
2019-02-27T01:51:00.485Z,1025.46
2019-02-27T01:52:02.086Z,1025.47
2019-02-27T01:53:00.314Z,1025.44
2019-02-27T01:54:00.238Z,1025.45
2019-02-27T01:55:00.307Z,1025.45
2019-02-27T01:56:00.063Z,1025.42
2019-02-27T01:57:02.734Z,1025.43
2019-02-27T01:57:59.887Z,1025.39
2019-02-27T01:58:59.799Z,1025.39
2019-02-27T01:59:59.713Z,1025.35
2019-02-27T02:00:59.638Z,1025.35
2019-02-27T02:02:01.115Z,1025.34
2019-02-27T02:02:59.464Z,1025.34
2019-02-27T02:03:59.376Z,1025.36
2019-02-27T02:04:59.287Z,1025.34
2019-02-27T02:05:59.793Z,1025.30
2019-02-27T02:06:59.113Z,1025.32
2019-02-27T02:07:59.038Z,1025.32
2019-02-27T02:08:58.953Z,1025.29
2019-02-27T02:09:58.864Z,1025.27
2019-02-27T02:10:58.921Z,1025.22
2019-02-27T02:11:58.989Z,1025.22
2019-02-27T02:12:58.600Z,1025.20
2019-02-27T02:13:58.513Z,1025.14
2019-02-27T02:14:58.438Z,1025.18
2019-02-27T02:16:00.864Z,1025.14
2019-02-27T02:16:58.263Z,1025.12
2019-02-27T02:17:58.177Z,1025.08
2019-02-27T02:18:58.089Z,1025.08
2019-02-27T02:19:58.002Z,1025.05
2019-02-27T02:21:00.907Z,1025.07
2019-02-27T02:21:57.840Z,1025.05
2019-02-27T02:22:57.755Z,1025.05
2019-02-27T02:23:57.666Z,1025.07
2019-02-27T02:24:57.577Z,1025.04
2019-02-27T02:26:01.104Z,1025.04
2019-02-27T02:26:57.416Z,1025.04
2019-02-27T02:27:57.327Z,1025.01
2019-02-27T02:28:57.229Z,1024.99
2019-02-27T02:29:57.157Z,1025.04
2019-02-27T02:30:57.070Z,1025.02
2019-02-27T02:31:56.979Z,1025.05
2019-02-27T02:32:56.892Z,1025.01
2019-02-27T02:33:56.806Z,1025.01
2019-02-27T02:34:56.735Z,1024.95
2019-02-27T02:35:56.630Z,1024.98
2019-02-27T02:37:01.422Z,1024.92
2019-02-27T02:37:56.466Z,1024.92
2019-02-27T02:38:56.382Z,1024.88
2019-02-27T02:39:56.291Z,1024.89
2019-02-27T02:40:56.207Z,1024.91
2019-02-27T02:41:56.130Z,1024.87
2019-02-27T02:42:59.211Z,1024.86
2019-02-27T02:43:55.944Z,1024.89
2019-02-27T02:44:57.690Z,1024.90
2019-02-27T02:45:55.781Z,1024.88
2019-02-27T02:46:55.692Z,1024.86
2019-02-27T02:47:56.696Z,1024.83
2019-02-27T02:48:55.531Z,1024.85
2019-02-27T02:49:55.429Z,1024.89
2019-02-27T02:50:55.343Z,1024.86
2019-02-27T02:51:55.259Z,1024.86
2019-02-27T02:52:55.171Z,1024.88
2019-02-27T02:54:00.666Z,1024.84
2019-02-27T02:54:55.009Z,1024.83
2019-02-27T02:55:54.934Z,1024.84
2019-02-27T02:57:00.124Z,1024.84
2019-02-27T02:57:54.743Z,1024.88
2019-02-27T02:58:54.658Z,1024.88
2019-02-27T02:59:59.374Z,1024.87
2019-02-27T03:00:54.494Z,1024.83
2019-02-27T03:01:54.408Z,1024.82
2019-02-27T03:02:57.685Z,1024.82
2019-02-27T03:03:54.235Z,1024.81
2019-02-27T03:04:54.147Z,1024.84
2019-02-27T03:05:58.395Z,1024.80
2019-02-27T03:49:40.018Z,1024.51
2019-02-27T03:50:36.340Z,1024.52
2019-02-27T03:51:36.239Z,1024.49
2019-02-27T03:52:37.190Z,1024.48
2019-02-27T03:53:36.062Z,1024.50
2019-02-27T03:54:35.975Z,1024.47
2019-02-27T03:55:35.886Z,1024.44
2019-02-27T03:56:35.810Z,1024.47
2019-02-27T03:57:35.714Z,1024.47
2019-02-27T03:58:35.638Z,1024.44
2019-02-27T03:59:38.754Z,1024.42
2019-02-27T04:00:35.461Z,1024.41
2019-02-27T04:01:35.376Z,1024.35
2019-02-27T04:02:35.288Z,1024.35
2019-02-27T04:03:35.200Z,1024.35
2019-02-27T04:04:35.113Z,1024.37
2019-02-27T04:05:41.036Z,1024.36
2019-02-27T04:06:34.939Z,1024.39
2019-02-27T04:07:34.849Z,1024.37
2019-02-27T04:08:34.767Z,1024.35
2019-02-27T04:09:34.692Z,1024.36
2019-02-27T04:10:34.603Z,1024.37
2019-02-27T04:11:34.515Z,1024.39
2019-02-27T04:12:34.426Z,1024.36
2019-02-27T04:13:34.341Z,1024.33
2019-02-27T04:14:40.287Z,1024.37
2019-02-27T04:15:34.164Z,1024.31
2019-02-27T04:16:34.079Z,1024.29
2019-02-27T04:17:34.000Z,1024.26
2019-02-27T04:18:33.906Z,1024.28
2019-02-27T04:19:38.745Z,1024.28
2019-02-27T04:20:33.750Z,1024.25
2019-02-27T04:21:33.655Z,1024.27
2019-02-27T04:22:36.575Z,1024.23
2019-02-27T04:23:33.479Z,1024.21
2019-02-27T04:24:33.390Z,1024.23
2019-02-27T04:25:33.306Z,1024.19
2019-02-27T04:26:33.218Z,1024.21
2019-02-27T04:27:33.127Z,1024.19
2019-02-27T04:28:33.047Z,1024.23
2019-02-27T04:29:32.956Z,1024.20
2019-02-27T04:30:32.880Z,1024.20
2019-02-27T04:31:32.794Z,1024.22
2019-02-27T04:32:32.707Z,1024.20
2019-02-27T04:33:32.616Z,1024.17
2019-02-27T04:34:33.299Z,1024.19
2019-02-27T04:35:34.262Z,1024.16
2019-02-27T04:36:32.353Z,1024.15
2019-02-27T04:37:32.266Z,1024.14
2019-02-27T04:38:32.178Z,1024.17
2019-02-27T04:39:32.091Z,1024.14
2019-02-27T04:40:32.018Z,1024.22
2019-02-27T04:41:31.930Z,1024.17
2019-02-27T04:42:31.846Z,1024.20
2019-02-27T04:43:32.297Z,1024.18
2019-02-27T04:44:31.667Z,1024.16
2019-02-27T04:45:31.578Z,1024.18
2019-02-27T04:46:31.492Z,1024.15
2019-02-27T04:47:31.416Z,1024.14
2019-02-27T04:48:31.405Z,1024.16
2019-02-27T04:49:31.231Z,1024.18
2019-02-27T04:50:31.144Z,1024.11
2019-02-27T04:51:31.058Z,1024.10
2019-02-27T04:52:30.982Z,1024.10
2019-02-27T04:53:31.921Z,1024.08
2019-02-27T04:54:30.805Z,1024.06
2019-02-27T04:55:30.720Z,1024.08
2019-02-27T04:56:30.633Z,1024.07
2019-02-27T04:57:30.836Z,1024.07
2019-02-27T04:58:31.344Z,1024.06
2019-02-27T04:59:30.375Z,1024.02
2019-02-27T05:00:30.280Z,1024.03
2019-02-27T05:01:30.194Z,1024.01
2019-02-27T05:02:30.106Z,1024.06
2019-02-27T05:03:30.030Z,1024.02
2019-02-27T05:04:34.887Z,1023.97
2019-02-27T05:05:29.857Z,1023.97
2019-02-27T05:06:29.772Z,1023.97
2019-02-27T05:07:29.695Z,1024.00
2019-02-27T05:08:29.596Z,1023.99
2019-02-27T05:09:31.339Z,1023.97
2019-02-27T05:10:29.424Z,1024.01
2019-02-27T05:11:29.337Z,1024.01
2019-02-27T05:12:29.246Z,1023.98
2019-02-27T05:13:29.158Z,1023.97
2019-02-27T05:14:29.070Z,1023.94
2019-02-27T05:15:28.983Z,1023.94
2019-02-27T05:16:28.909Z,1023.96
2019-02-27T05:17:28.823Z,1023.94
2019-02-27T05:18:29.469Z,1023.95
2019-02-27T05:19:28.653Z,1023.89
2019-02-27T05:20:28.560Z,1023.93
2019-02-27T05:21:28.472Z,1023.90
2019-02-27T05:22:28.382Z,1023.90
2019-02-27T05:23:28.308Z,1023.91
2019-02-27T05:24:28.222Z,1023.92
2019-02-27T05:25:28.120Z,1023.91
2019-02-27T05:26:28.033Z,1023.92
2019-02-27T05:27:27.946Z,1023.93
2019-02-27T05:28:27.862Z,1023.94
2019-02-27T05:29:27.785Z,1023.95
2019-02-27T05:30:27.698Z,1023.92
2019-02-27T05:31:27.624Z,1023.97
2019-02-27T05:32:28.337Z,1023.93
2019-02-27T05:33:27.437Z,1023.88
2019-02-27T05:34:27.349Z,1023.88
2019-02-27T05:35:27.259Z,1023.88
2019-02-27T05:36:29.028Z,1023.87
2019-02-27T05:37:27.089Z,1023.89
2019-02-27T05:38:27.003Z,1023.89
2019-02-27T05:39:26.912Z,1023.87
2019-02-27T05:40:26.824Z,1023.91
2019-02-27T05:41:26.737Z,1023.88
2019-02-27T05:42:26.650Z,1023.92
2019-02-27T05:43:26.580Z,1023.91
2019-02-27T05:44:26.485Z,1023.91
2019-02-27T05:45:30.340Z,1023.89
2019-02-27T05:46:26.310Z,1023.91
2019-02-27T05:47:26.223Z,1023.87
2019-02-27T05:48:26.137Z,1023.87
2019-02-27T05:49:27.388Z,1023.89
2019-02-27T05:50:25.963Z,1023.86
2019-02-27T05:51:25.879Z,1023.87
2019-02-27T05:52:25.786Z,1023.86
2019-02-27T05:53:25.706Z,1023.84
2019-02-27T05:54:25.619Z,1023.82
2019-02-27T05:55:25.524Z,1023.80
2019-02-27T05:56:25.437Z,1023.83
2019-02-27T05:57:25.349Z,1023.81
2019-02-27T05:58:25.269Z,1023.82
2019-02-27T05:59:28.889Z,1023.80
2019-02-27T06:00:25.102Z,1023.75
2019-02-27T06:01:25.002Z,1023.80
2019-02-27T06:02:25.548Z,1023.77
2019-02-27T06:03:24.838Z,1023.75
2019-02-27T06:04:25.114Z,1023.78
2019-02-27T06:05:24.662Z,1023.74
2019-02-27T06:06:24.575Z,1023.77
2019-02-27T06:07:24.487Z,1023.78
2019-02-27T06:08:24.403Z,1023.79
2019-02-27T06:09:24.315Z,1023.76
2019-02-27T06:10:24.254Z,1023.75
2019-02-27T06:11:24.153Z,1023.77
2019-02-27T06:12:24.053Z,1023.77
2019-02-27T06:13:23.965Z,1023.71
2019-02-27T06:14:23.887Z,1023.78
2019-02-27T06:15:26.011Z,1023.74
2019-02-27T06:16:23.701Z,1023.77
2019-02-27T06:17:23.624Z,1023.74
2019-02-27T06:18:23.775Z,1023.73
2019-02-27T06:19:23.457Z,1023.72
2019-02-27T06:20:23.366Z,1023.72
2019-02-27T06:21:23.285Z,1023.76
2019-02-27T06:22:23.192Z,1023.73
2019-02-27T06:23:23.104Z,1023.72
2019-02-27T06:24:23.014Z,1023.75
2019-02-27T06:25:23.967Z,1023.75
2019-02-27T06:26:22.854Z,1023.69
2019-02-27T06:27:22.754Z,1023.67
2019-02-27T06:28:22.664Z,1023.71
2019-02-27T06:29:23.934Z,1023.70
2019-02-27T06:30:22.490Z,1023.65
2019-02-27T06:31:22.414Z,1023.67
2019-02-27T06:32:22.330Z,1023.66
2019-02-27T06:33:22.243Z,1023.67
2019-02-27T06:34:22.292Z,1023.67
2019-02-27T06:35:22.067Z,1023.66
2019-02-27T06:36:21.978Z,1023.65
2019-02-27T06:37:21.890Z,1023.62
2019-02-27T06:38:25.013Z,1023.61
2019-02-27T06:39:21.716Z,1023.60
2019-02-27T06:40:21.652Z,1023.62
2019-02-27T06:41:21.543Z,1023.61
2019-02-27T06:42:21.537Z,1023.63
2019-02-27T06:43:21.370Z,1023.63
2019-02-27T06:44:21.293Z,1023.63
2019-02-27T06:45:21.209Z,1023.60
2019-02-27T06:46:21.119Z,1023.60
2019-02-27T06:47:21.032Z,1023.64
2019-02-27T06:48:20.942Z,1023.62
2019-02-27T06:49:20.855Z,1023.61
2019-02-27T06:50:25.283Z,1023.62
2019-02-27T06:51:20.680Z,1023.63
2019-02-27T06:52:20.596Z,1023.63
2019-02-27T06:53:20.507Z,1023.64
2019-02-27T06:54:20.420Z,1023.62
2019-02-27T06:55:20.345Z,1023.62
2019-02-27T06:56:20.256Z,1023.64
2019-02-27T06:57:20.168Z,1023.60
2019-02-27T06:58:20.080Z,1023.59
2019-02-27T06:59:24.531Z,1023.55
2019-02-27T07:00:19.908Z,1023.56
2019-02-27T07:01:19.826Z,1023.57
2019-02-27T07:02:21.669Z,1023.55
2019-02-27T07:03:19.646Z,1023.55
2019-02-27T07:04:19.569Z,1023.58
2019-02-27T07:05:19.482Z,1023.56
2019-02-27T07:06:21.658Z,1023.61
2019-02-27T07:07:19.310Z,1023.59
2019-02-27T07:08:19.236Z,1023.51
2019-02-27T07:09:19.135Z,1023.50
2019-02-27T07:10:20.037Z,1023.48
2019-02-27T07:11:18.971Z,1023.51
2019-02-27T07:12:21.661Z,1023.51
2019-02-27T07:13:18.794Z,1023.55
2019-02-27T07:14:18.707Z,1023.53
2019-02-27T07:15:18.620Z,1023.53
2019-02-27T07:16:20.492Z,1023.52
2019-02-27T07:17:18.446Z,1023.51
2019-02-27T07:18:18.369Z,1023.54
2019-02-27T07:19:18.283Z,1023.50
2019-02-27T07:20:18.197Z,1023.48
2019-02-27T07:21:18.112Z,1023.47
2019-02-27T07:22:18.023Z,1023.48
2019-02-27T07:23:22.636Z,1023.49
2019-02-27T07:24:17.862Z,1023.50
2019-02-27T07:25:17.772Z,1023.46
2019-02-27T07:26:17.684Z,1023.50
2019-02-27T07:27:17.596Z,1023.49
2019-02-27T07:28:17.511Z,1023.49
2019-02-27T07:29:21.576Z,1023.47
2019-02-27T07:30:17.349Z,1023.51
2019-02-27T07:31:18.329Z,1023.55
2019-02-27T07:32:17.173Z,1023.55
2019-02-27T07:33:17.088Z,1023.52
2019-02-27T07:34:17.012Z,1023.55
2019-02-27T07:35:16.928Z,1023.53
2019-02-27T07:36:16.842Z,1023.54
2019-02-27T07:37:16.748Z,1023.49
2019-02-27T07:38:21.412Z,1023.49
2019-02-27T07:39:16.585Z,1023.49
2019-02-27T07:40:16.500Z,1023.46
2019-02-27T07:41:20.225Z,1023.44
2019-02-27T07:42:16.339Z,1023.41
2019-02-27T07:43:16.249Z,1023.42
2019-02-27T07:44:16.172Z,1023.42
2019-02-27T07:45:16.085Z,1023.43
2019-02-27T07:46:15.999Z,1023.44
2019-02-27T07:47:15.923Z,1023.41
2019-02-27T07:48:15.836Z,1023.40
2019-02-27T07:49:15.749Z,1023.42
2019-02-27T07:50:15.674Z,1023.43
2019-02-27T07:51:15.586Z,1023.37
2019-02-27T07:52:15.501Z,1023.41
2019-02-27T07:53:17.470Z,1023.41
2019-02-27T07:54:15.339Z,1023.43
2019-02-27T07:55:21.584Z,1023.40
2019-02-27T07:56:15.174Z,1023.35
2019-02-27T07:57:15.087Z,1023.35
2019-02-27T07:58:15.013Z,1023.36
2019-02-27T07:59:14.924Z,1023.31
2019-02-27T08:00:15.191Z,1023.32
2019-02-27T08:01:14.766Z,1023.36
2019-02-27T08:02:14.677Z,1023.36
2019-02-27T08:03:14.601Z,1023.36
2019-02-27T08:04:19.058Z,1023.33
2019-02-27T08:05:14.428Z,1023.32
2019-02-27T08:06:14.355Z,1023.31
2019-02-27T08:07:14.265Z,1023.32
2019-02-27T08:08:14.189Z,1023.34
2019-02-27T08:09:14.102Z,1023.30
2019-02-27T08:10:14.021Z,1023.33
2019-02-27T08:11:14.248Z,1023.26
2019-02-27T08:12:13.854Z,1023.30
2019-02-27T08:13:13.767Z,1023.29
2019-02-27T08:14:13.691Z,1023.25
2019-02-27T08:15:13.729Z,1023.23
2019-02-27T08:16:13.519Z,1023.27
2019-02-27T08:17:17.625Z,1023.27
2019-02-27T08:18:13.406Z,1023.27
2019-02-27T08:19:13.264Z,1023.27
2019-02-27T08:20:13.191Z,1023.24
2019-02-27T08:21:13.103Z,1023.27
2019-02-27T08:22:13.021Z,1023.31
2019-02-27T08:23:12.940Z,1023.33
2019-02-27T08:24:12.854Z,1023.30
2019-02-27T08:25:12.769Z,1023.26
2019-02-27T08:26:12.693Z,1023.27
2019-02-27T08:27:12.604Z,1023.28
2019-02-27T08:28:12.520Z,1023.24
2019-02-27T08:29:12.441Z,1023.24
2019-02-27T08:30:12.366Z,1023.23
2019-02-27T08:31:12.268Z,1023.28
2019-02-27T08:32:12.192Z,1023.24
2019-02-27T08:33:12.105Z,1023.24
2019-02-27T08:34:12.018Z,1023.22
2019-02-27T08:35:11.943Z,1023.25
2019-02-27T08:36:11.854Z,1023.25
2019-02-27T08:37:11.769Z,1023.25
2019-02-27T08:38:11.701Z,1023.20
2019-02-27T08:39:11.610Z,1023.24
2019-02-27T08:40:11.530Z,1023.24
2019-02-27T08:41:11.447Z,1023.21
2019-02-27T08:42:11.354Z,1023.22
2019-02-27T08:43:11.279Z,1023.21
2019-02-27T08:44:12.279Z,1023.23
2019-02-27T08:45:19.182Z,1023.21
2019-02-27T08:46:11.032Z,1023.18
2019-02-27T08:47:10.956Z,1023.17
2019-02-27T08:48:10.868Z,1023.19
2019-02-27T08:49:10.780Z,1023.20
2019-02-27T08:50:10.705Z,1023.20
2019-02-27T08:51:10.630Z,1023.17
2019-02-27T08:52:13.096Z,1023.16
2019-02-27T08:53:10.455Z,1023.14
2019-02-27T08:54:10.380Z,1023.15
2019-02-27T08:55:18.834Z,1023.15
2019-02-27T08:56:12.181Z,1023.09
2019-02-27T08:57:10.132Z,1023.06
2019-02-27T08:58:10.059Z,1023.09
2019-02-27T08:59:09.971Z,1023.08
2019-02-27T09:00:14.185Z,1023.09
2019-02-27T09:01:09.806Z,1023.03
2019-02-27T09:02:09.731Z,1023.07
2019-02-27T09:03:19.668Z,1023.01
2019-02-27T09:04:11.688Z,1022.99
2019-02-27T09:05:09.486Z,1023.06
2019-02-27T09:06:09.409Z,1023.03
2019-02-27T09:07:09.322Z,1023.01
2019-02-27T09:08:10.143Z,1023.04
2019-02-27T09:09:09.158Z,1023.01
2019-02-27T09:10:09.094Z,1022.97
2019-02-27T09:11:09.008Z,1022.98
2019-02-27T09:12:13.189Z,1022.93
2019-02-27T09:13:08.847Z,1022.95
2019-02-27T09:14:08.760Z,1022.88
2019-02-27T09:15:08.704Z,1022.88
2019-02-27T09:16:08.608Z,1022.87
2019-02-27T09:17:08.521Z,1022.85
2019-02-27T09:18:08.446Z,1022.87
2019-02-27T09:19:09.467Z,1022.83
2019-02-27T09:20:08.285Z,1022.84
2019-02-27T09:21:08.214Z,1022.83
2019-02-27T09:22:08.123Z,1022.80
2019-02-27T09:23:08.048Z,1022.75
2019-02-27T09:24:07.961Z,1022.74
2019-02-27T09:25:07.885Z,1022.73
2019-02-27T09:26:07.811Z,1022.72
2019-02-27T09:27:07.724Z,1022.76
2019-02-27T09:28:09.291Z,1022.73
2019-02-27T09:29:07.561Z,1022.72
2019-02-27T09:30:07.484Z,1022.73
2019-02-27T09:31:07.409Z,1022.72
2019-02-27T09:32:11.395Z,1022.71
2019-02-27T09:33:07.250Z,1022.67
2019-02-27T09:34:07.201Z,1022.69
2019-02-27T09:35:07.087Z,1022.65
2019-02-27T09:36:08.042Z,1022.60
2019-02-27T09:37:06.927Z,1022.63
2019-02-27T09:38:08.561Z,1022.53
2019-02-27T09:39:06.762Z,1022.54
2019-02-27T09:40:06.685Z,1022.50
2019-02-27T09:41:06.610Z,1022.46
2019-02-27T09:42:06.525Z,1022.48
2019-02-27T09:43:06.449Z,1022.49
2019-02-27T09:44:06.376Z,1022.45
2019-02-27T09:45:08.288Z,1022.43
2019-02-27T09:46:06.336Z,1022.40
2019-02-27T09:47:06.137Z,1022.44
2019-02-27T09:48:06.049Z,1022.40
2019-02-27T09:49:07.056Z,1022.38
2019-02-27T09:50:05.889Z,1022.39
2019-02-27T09:51:05.811Z,1022.36
2019-02-27T09:52:05.739Z,1022.35
2019-02-27T09:53:05.655Z,1022.36
2019-02-27T09:54:05.577Z,1022.34
2019-02-27T09:55:05.502Z,1022.32
2019-02-27T09:56:05.413Z,1022.27
2019-02-27T09:57:05.338Z,1022.31
2019-02-27T09:58:09.923Z,1022.29
2019-02-27T09:59:05.177Z,1022.28
2019-02-27T10:00:05.100Z,1022.26
2019-02-27T10:01:05.015Z,1022.28
2019-02-27T10:02:06.287Z,1022.24
2019-02-27T10:03:04.851Z,1022.27
2019-02-27T10:04:04.778Z,1022.24
2019-02-27T10:05:04.689Z,1022.23
2019-02-27T10:06:04.615Z,1022.22
2019-02-27T10:07:04.539Z,1022.21
2019-02-27T10:08:04.452Z,1022.22
2019-02-27T10:09:04.378Z,1022.21
2019-02-27T10:10:04.291Z,1022.20
2019-02-27T10:11:04.213Z,1022.20
2019-02-27T10:12:04.126Z,1022.20
2019-02-27T10:13:04.136Z,1022.19
2019-02-27T10:14:03.976Z,1022.22
2019-02-27T10:15:03.889Z,1022.18
2019-02-27T10:16:03.835Z,1022.23
2019-02-27T10:17:03.732Z,1022.19
2019-02-27T10:18:03.660Z,1022.23
2019-02-27T10:19:03.573Z,1022.22
2019-02-27T10:20:03.488Z,1022.24
2019-02-27T10:21:03.403Z,1022.19
2019-02-27T10:22:03.328Z,1022.21
2019-02-27T10:23:03.240Z,1022.21
2019-02-27T10:24:04.819Z,1022.19
2019-02-27T10:25:03.082Z,1022.18
2019-02-27T10:26:03.006Z,1022.18
2019-02-27T10:27:03.210Z,1022.15
2019-02-27T10:28:04.369Z,1022.14
2019-02-27T10:29:02.768Z,1022.15
2019-02-27T10:30:11.084Z,1022.09
2019-02-27T10:31:02.611Z,1022.11
2019-02-27T10:32:02.519Z,1022.09
2019-02-27T10:33:03.438Z,1022.06
2019-02-27T10:34:02.357Z,1022.03
2019-02-27T10:35:02.279Z,1022.04
2019-02-27T10:36:03.675Z,1021.99
2019-02-27T10:37:02.159Z,1021.98
2019-02-27T10:38:02.043Z,1021.97
2019-02-27T10:39:02.229Z,1021.99
2019-02-27T10:40:01.880Z,1021.98
2019-02-27T10:41:01.794Z,1021.90
2019-02-27T10:42:01.718Z,1021.89
2019-02-27T10:43:01.643Z,1021.86
2019-02-27T10:44:01.555Z,1021.86
2019-02-27T10:45:01.480Z,1021.82
2019-02-27T10:46:01.405Z,1021.81
2019-02-27T10:47:01.318Z,1021.83
2019-02-27T10:48:01.245Z,1021.83
2019-02-27T10:49:01.161Z,1021.77
2019-02-27T10:50:02.200Z,1021.73
2019-02-27T10:51:00.994Z,1021.71
2019-02-27T10:52:00.917Z,1021.72
2019-02-27T10:53:00.832Z,1021.69
2019-02-27T10:54:04.508Z,1021.70
2019-02-27T10:55:00.683Z,1021.64
2019-02-27T10:56:00.597Z,1021.65
2019-02-27T10:57:00.520Z,1021.67
2019-02-27T10:58:00.436Z,1021.62
2019-02-27T10:59:00.358Z,1021.60
2019-02-27T11:00:00.332Z,1021.55
2019-02-27T11:01:01.120Z,1021.56
2019-02-27T11:02:00.123Z,1021.52
2019-02-27T11:03:00.034Z,1021.49
2019-02-27T11:04:00.530Z,1021.49
2019-02-27T11:04:59.872Z,1021.50
2019-02-27T11:05:59.794Z,1021.53
2019-02-27T11:06:59.719Z,1021.49
2019-02-27T11:07:59.639Z,1021.50
2019-02-27T11:08:59.560Z,1021.50
2019-02-27T11:09:59.485Z,1021.54
2019-02-27T11:10:59.399Z,1021.51
2019-02-27T11:11:59.322Z,1021.46
2019-02-27T11:12:59.244Z,1021.49
2019-02-27T11:13:59.158Z,1021.52
2019-02-27T11:14:59.083Z,1021.51
2019-02-27T11:15:58.999Z,1021.45
2019-02-27T11:17:02.045Z,1021.41
2019-02-27T11:18:04.222Z,1021.42
2019-02-27T11:18:58.758Z,1021.42
2019-02-27T11:19:58.684Z,1021.42
2019-02-27T11:20:59.249Z,1021.49
2019-02-27T11:21:59.088Z,1021.51
2019-02-27T11:22:58.445Z,1021.45
2019-02-27T11:23:58.371Z,1021.40
2019-02-27T11:24:58.295Z,1021.40
2019-02-27T11:25:58.209Z,1021.46
2019-02-27T11:26:58.134Z,1021.38
2019-02-27T11:27:58.060Z,1021.33
2019-02-27T11:28:57.980Z,1021.32
2019-02-27T11:30:01.251Z,1021.30
2019-02-27T11:30:57.836Z,1021.36
2019-02-27T11:31:57.746Z,1021.36
2019-02-27T11:32:58.006Z,1021.36
2019-02-27T11:33:57.585Z,1021.37
2019-02-27T11:34:57.510Z,1021.39
2019-02-27T11:35:57.436Z,1021.39
2019-02-27T11:36:57.346Z,1021.44
2019-02-27T11:37:57.276Z,1021.41
2019-02-27T11:38:59.179Z,1021.41
2019-02-27T11:39:57.123Z,1021.36
2019-02-27T11:40:57.036Z,1021.35
2019-02-27T11:41:56.961Z,1021.33
2019-02-27T11:42:56.889Z,1021.31
2019-02-27T11:43:56.811Z,1021.30
2019-02-27T11:44:56.738Z,1021.23
2019-02-27T11:45:58.049Z,1021.18
2019-02-27T11:46:58.928Z,1021.18
2019-02-27T11:47:56.500Z,1021.11
2019-02-27T11:48:56.998Z,1021.07
2019-02-27T11:49:56.349Z,1021.06
2019-02-27T11:50:56.274Z,1021.04
2019-02-27T11:51:57.101Z,1021.03
2019-02-27T11:52:56.126Z,1021.00
2019-02-27T11:53:56.062Z,1020.95
2019-02-27T11:54:55.976Z,1020.92
2019-02-27T11:55:55.899Z,1020.89
2019-02-27T11:56:56.934Z,1020.88
2019-02-27T11:57:55.762Z,1020.85
2019-02-27T11:58:55.674Z,1020.85
2019-02-27T11:59:55.613Z,1020.84
2019-02-27T12:00:55.526Z,1020.84
2019-02-27T12:01:56.187Z,1020.80
2019-02-27T12:02:55.427Z,1020.78
2019-02-27T12:03:55.314Z,1020.75
2019-02-27T12:04:56.658Z,1020.75
2019-02-27T12:05:55.166Z,1020.74
2019-02-27T12:06:55.089Z,1020.75
2019-02-27T12:07:55.015Z,1020.75
2019-02-27T12:08:59.454Z,1020.68
2019-02-27T12:09:54.865Z,1020.71
2019-02-27T12:10:54.789Z,1020.74
2019-02-27T12:11:54.726Z,1020.73
2019-02-27T12:12:59.715Z,1020.71
2019-02-27T12:13:54.867Z,1020.64
2019-02-27T12:14:54.502Z,1020.63
2019-02-27T12:15:54.428Z,1020.67
2019-02-27T12:16:54.354Z,1020.65
2019-02-27T12:17:54.277Z,1020.65
2019-02-27T12:18:54.201Z,1020.60
2019-02-27T12:19:54.127Z,1020.59
2019-02-27T12:20:54.140Z,1020.57
2019-02-27T12:21:53.990Z,1020.54
2019-02-27T12:22:53.915Z,1020.53
2019-02-27T12:23:53.840Z,1020.46
2019-02-27T12:24:53.765Z,1020.45
2019-02-27T12:25:53.691Z,1020.40
2019-02-27T12:26:53.616Z,1020.39
2019-02-27T12:27:53.545Z,1020.36
2019-02-27T12:28:53.675Z,1020.35
2019-02-27T12:29:53.418Z,1020.40
2019-02-27T12:30:53.328Z,1020.37
2019-02-27T12:31:53.253Z,1020.41
2019-02-27T12:32:55.747Z,1020.31
2019-02-27T12:33:53.106Z,1020.28
2019-02-27T12:34:53.028Z,1020.29
2019-02-27T12:35:52.954Z,1020.28
2019-02-27T12:36:53.263Z,1020.27
2019-02-27T12:37:52.817Z,1020.24
2019-02-27T12:38:52.741Z,1020.22
2019-02-27T12:39:52.667Z,1020.19
2019-02-27T12:40:52.593Z,1020.15
2019-02-27T12:41:52.518Z,1020.09
2019-02-27T12:42:52.443Z,1020.07
2019-02-27T12:43:52.682Z,1020.04
2019-02-27T12:44:54.605Z,1020.04
2019-02-27T12:45:52.242Z,1020.05
2019-02-27T12:46:52.156Z,1020.10